Time;durP1;ratioP1;P1;durP2;ratioP2;P2;SDS_P1;SDS_P2;PMS_P1;PMS_P2;Temp;Humidity;BMP_temperature;BMP_pressure;BME280_temperature;BME280_humidity;BME280_pressure;Samples;Min_cycle;Max_cycle;Signal;HPM_P1;HPM_P2
2023/10/24 00:00:31;;;;;;;50.00;46.50;;;9.00;92.40;;;;;;5053246;28;20172;-89
2023/10/24 00:02:57;;;;;;;49.63;46.23;;;9.00;92.40;;;;;;5053208;28;20565;-89
2023/10/24 00:05:22;;;;;;;51.27;47.57;;;9.00;92.40;;;;;;5054682;28;20690;-89
2023/10/24 00:07:49;;;;;;;50.67;46.97;;;9.00;92.40;;;;;;5053063;28;20648;-89
2023/10/24 00:10:15;;;;;;;52.80;49.17;;;9.00;92.30;;;;;;5052940;28;20168;-89
2023/10/24 00:12:41;;;;;;;30.07;27.43;;;9.00;92.40;;;;;;5053030;28;20673;-89
2023/10/24 00:15:07;;;;;;;30.83;28.43;;;9.00;92.40;;;;;;5052759;28;20208;-90
2023/10/24 00:17:32;;;;;;;46.73;43.23;;;9.00;92.40;;;;;;5052918;28;20168;-89
2023/10/24 00:19:58;;;;;;;47.57;44.10;;;9.10;92.40;;;;;;5053892;28;20172;-89
2023/10/24 00:22:23;;;;;;;52.33;48.53;;;9.00;92.30;;;;;;5052544;28;20207;-89
2023/10/24 00:24:49;;;;;;;29.63;27.37;;;9.00;92.30;;;;;;5052452;28;20207;-90
2023/10/24 00:27:14;;;;;;;31.07;28.63;;;9.10;92.30;;;;;;5052541;28;20218;-89
2023/10/24 00:29:40;;;;;;;47.77;44.17;;;9.10;92.30;;;;;;5052710;28;20214;-90
2023/10/24 00:32:05;;;;;;;49.43;45.70;;;9.10;92.30;;;;;;5052554;28;20178;-90
2023/10/24 00:34:31;;;;;;;44.90;41.53;;;9.10;92.30;;;;;;5052490;28;20259;-89
2023/10/24 00:36:56;;;;;;;33.30;30.40;;;9.20;92.40;;;;;;5052496;28;20179;-89
2023/10/24 00:39:22;;;;;;;32.53;29.70;;;9.20;92.40;;;;;;5052418;28;20175;-90
2023/10/24 00:41:48;;;;;;;31.47;28.73;;;9.20;92.30;;;;;;5052311;28;20251;-88
2023/10/24 00:44:14;;;;;;;32.30;29.60;;;9.20;92.40;;;;;;5052397;28;20241;-86
2023/10/24 00:46:41;;;;;;;32.40;29.73;;;9.20;92.30;;;;;;5052391;28;20206;-89
2023/10/24 00:49:08;;;;;;;32.50;30.03;;;9.20;92.30;;;;;;5053570;28;20184;-88
2023/10/24 00:51:33;;;;;;;34.90;31.90;;;9.30;92.30;;;;;;5052568;28;20183;-89
2023/10/24 00:54:00;;;;;;;31.47;28.63;;;9.30;92.40;;;;;;5054041;28;20176;-88
2023/10/24 00:56:27;;;;;;;31.67;28.97;;;9.30;92.30;;;;;;5052422;28;20195;-87
2023/10/24 00:58:53;;;;;;;33.30;30.37;;;9.30;92.30;;;;;;5052121;28;20202;-88
2023/10/24 01:01:18;;;;;;;32.57;29.97;;;9.40;92.30;;;;;;5052390;28;20659;-89
2023/10/24 01:03:46;;;;;;;32.73;30.23;;;9.30;92.30;;;;;;5052483;28;20658;-87
2023/10/24 01:06:12;;;;;;;32.27;29.77;;;9.40;92.30;;;;;;5052172;28;20207;-88
2023/10/24 01:08:37;;;;;;;35.47;32.07;;;9.40;92.30;;;;;;5052023;28;20659;-89
2023/10/24 01:11:04;;;;;;;33.73;30.80;;;9.40;92.30;;;;;;5053775;28;20172;-90
2023/10/24 01:13:30;;;;;;;33.87;30.80;;;9.40;92.30;;;;;;5052029;28;20176;-89
2023/10/24 01:15:55;;;;;;;34.07;31.43;;;9.50;92.30;;;;;;5053145;28;20211;-89
2023/10/24 01:18:21;;;;;;;31.60;28.77;;;9.50;92.30;;;;;;5051971;28;20187;-87
2023/10/24 01:20:47;;;;;;;29.70;27.33;;;9.50;92.30;;;;;;5052062;28;20209;-90
2023/10/24 01:23:12;;;;;;;33.27;30.37;;;9.50;92.30;;;;;;5053165;28;20692;-88
2023/10/24 01:25:40;;;;;;;33.03;30.33;;;9.50;92.30;;;;;;5053257;28;20255;-90
2023/10/24 01:28:06;;;;;;;49.70;45.93;;;9.50;92.30;;;;;;5051694;28;20651;-91
2023/10/24 01:30:32;;;;;;;52.50;48.50;;;9.50;92.30;;;;;;5051750;28;20183;-89
2023/10/24 01:32:58;;;;;;;49.43;45.93;;;9.50;92.30;;;;;;5052072;28;20241;-88
2023/10/24 01:35:23;;;;;;;52.03;48.23;;;9.50;92.30;;;;;;5052533;28;20668;-91
2023/10/24 01:37:49;;;;;;;51.83;48.03;;;9.50;92.30;;;;;;5055675;28;20210;-88
2023/10/24 01:40:15;;;;;;;51.57;47.63;;;9.50;92.30;;;;;;5055772;28;20190;-88
2023/10/24 01:42:40;;;;;;;52.23;48.43;;;9.50;92.30;;;;;;5056971;28;20183;-88
2023/10/24 01:45:06;;;;;;;53.50;49.60;;;9.50;92.30;;;;;;5055573;28;20606;-88
2023/10/24 01:47:33;;;;;;;49.77;46.27;;;9.50;92.40;;;;;;5056868;28;20210;-90
2023/10/24 01:49:58;;;;;;;51.63;47.93;;;9.50;92.40;;;;;;5055544;28;20176;-90
2023/10/24 01:52:24;;;;;;;51.37;47.63;;;9.50;92.30;;;;;;5055507;28;20560;-90
2023/10/24 01:54:49;;;;;;;53.03;49.07;;;9.60;92.40;;;;;;5055364;28;20338;-90
2023/10/24 01:57:16;;;;;;;50.73;47.00;;;9.60;92.40;;;;;;5055950;28;20180;-90
2023/10/24 01:59:42;;;;;;;50.67;47.13;;;9.60;92.40;;;;;;5055522;28;20247;-88
2023/10/24 02:02:07;;;;;;;49.37;45.97;;;9.60;92.30;;;;;;5055466;28;20215;-89
2023/10/24 02:04:33;;;;;;;32.80;29.90;;;9.60;92.30;;;;;;5055223;28;20200;-89
2023/10/24 02:06:58;;;;;;;34.00;31.20;;;9.60;92.30;;;;;;5056411;28;20172;-89
2023/10/24 02:09:24;;;;;;;34.77;32.00;;;9.60;92.30;;;;;;5055239;28;20619;-90
2023/10/24 02:11:49;;;;;;;51.23;47.33;;;9.60;92.30;;;;;;5056479;28;20167;-90
2023/10/24 02:14:15;;;;;;;52.80;48.87;;;9.60;92.30;;;;;;5055159;28;20279;-90
2023/10/24 02:16:40;;;;;;;34.27;31.57;;;9.60;92.30;;;;;;5056188;28;20199;-89
2023/10/24 02:19:06;;;;;;;32.23;29.83;;;9.60;92.30;;;;;;5055254;28;20211;-88
2023/10/24 02:21:32;;;;;;;36.50;33.70;;;9.60;92.30;;;;;;5056424;28;20187;-90
2023/10/24 02:23:57;;;;;;;48.87;45.37;;;9.60;92.30;;;;;;5055053;28;20184;-87
2023/10/24 02:26:23;;;;;;;52.53;48.23;;;9.60;92.30;;;;;;5055979;28;20207;-89
2023/10/24 02:28:48;;;;;;;35.30;31.90;;;9.60;92.40;;;;;;5055164;28;20180;-89
2023/10/24 02:31:14;;;;;;;33.20;30.70;;;9.70;92.40;;;;;;5055105;28;20172;-89
2023/10/24 02:33:40;;;;;;;33.80;31.00;;;9.60;92.40;;;;;;5055871;28;20526;-89
2023/10/24 02:36:10;;;;;;;33.73;31.23;;;9.70;92.40;;;;;;5055018;28;20203;-89
2023/10/24 02:38:36;;;;;;;32.23;29.83;;;9.70;92.40;;;;;;5054794;28;20184;-89
2023/10/24 02:41:02;;;;;;;31.93;29.47;;;9.70;92.50;;;;;;5055057;28;20180;-89
2023/10/24 02:43:28;;;;;;;34.13;31.53;;;9.80;92.50;;;;;;5055880;28;20529;-89
2023/10/24 02:45:55;;;;;;;33.00;30.50;;;9.80;92.50;;;;;;5054582;28;20313;-89
2023/10/24 02:48:21;;;;;;;34.33;31.53;;;9.70;92.50;;;;;;5053301;28;20179;-90
2023/10/24 02:50:54;;;;;;;33.50;30.80;;;9.80;92.50;;;;;;5054676;28;20176;-89
2023/10/24 02:53:20;;;;;;;34.03;31.27;;;9.80;92.50;;;;;;5054952;28;20171;-89
2023/10/24 02:55:46;;;;;;;33.20;30.50;;;9.80;92.50;;;;;;5054366;28;20207;-89
2023/10/24 02:58:11;;;;;;;33.87;31.20;;;9.80;92.50;;;;;;5054368;28;20199;-89
2023/10/24 03:00:37;;;;;;;33.47;30.77;;;9.80;92.50;;;;;;5054393;28;20176;-89
2023/10/24 03:03:02;;;;;;;31.10;28.77;;;9.80;92.60;;;;;;5054285;28;20187;-90
2023/10/24 03:05:28;;;;;;;36.37;33.23;;;9.90;92.60;;;;;;5055379;28;20207;-90
2023/10/24 03:07:54;;;;;;;36.93;33.50;;;9.80;92.50;;;;;;5054609;28;20184;-89
2023/10/24 03:10:20;;;;;;;35.57;32.60;;;9.90;92.60;;;;;;5054117;28;20180;-89
2023/10/24 03:12:45;;;;;;;36.70;33.43;;;9.90;92.60;;;;;;5055157;28;20203;-90
2023/10/24 03:15:11;;;;;;;37.73;34.63;;;9.80;92.70;;;;;;5053795;28;20211;-89
2023/10/24 03:17:37;;;;;;;36.63;33.60;;;9.90;92.70;;;;;;5054586;28;20541;-90
2023/10/24 03:20:03;;;;;;;42.10;39.10;;;9.80;92.80;;;;;;5055120;28;20643;-89
2023/10/24 03:22:28;;;;;;;56.87;52.87;;;9.80;92.80;;;;;;5054173;28;20184;-89
2023/10/24 03:24:56;;;;;;;58.77;54.67;;;9.80;92.90;;;;;;5053747;28;20288;-90
2023/10/24 03:27:21;;;;;;;58.80;54.77;;;9.90;93.00;;;;;;5053719;28;20191;-89
2023/10/24 03:29:47;;;;;;;58.20;54.10;;;9.90;93.10;;;;;;5053878;28;20208;-89
2023/10/24 03:32:13;;;;;;;60.43;56.00;;;9.80;93.20;;;;;;5053678;28;20207;-89
2023/10/24 03:34:39;;;;;;;58.03;53.70;;;9.80;93.20;;;;;;5053622;28;20698;-90
2023/10/24 03:37:05;;;;;;;58.93;54.93;;;9.80;93.30;;;;;;5055176;28;20200;-89
2023/10/24 03:39:31;;;;;;;58.50;54.40;;;9.90;93.30;;;;;;5054751;28;20172;-91
2023/10/24 03:41:56;;;;;;;58.13;53.90;;;9.90;93.30;;;;;;5054846;28;20226;-89
2023/10/24 03:44:23;;;;;;;60.20;55.77;;;9.90;93.30;;;;;;5053346;28;20168;-89
2023/10/24 03:46:49;;;;;;;61.90;57.27;;;9.90;93.30;;;;;;5053254;28;20251;-89
2023/10/24 03:49:14;;;;;;;58.70;54.40;;;9.90;93.40;;;;;;5053364;28;20179;-90
2023/10/24 03:51:40;;;;;;;61.37;56.93;;;9.90;93.40;;;;;;5053122;28;20180;-89
2023/10/24 03:54:06;;;;;;;65.13;60.30;;;10.00;93.50;;;;;;5053273;28;20194;-89
2023/10/24 03:56:32;;;;;;;47.90;44.17;;;10.00;93.50;;;;;;5054504;28;20282;-89
2023/10/24 03:58:58;;;;;;;44.43;40.93;;;10.00;93.60;;;;;;5053023;28;20176;-89
2023/10/24 04:01:23;;;;;;;45.43;42.00;;;10.00;93.60;;;;;;5053023;28;20180;-89
2023/10/24 04:03:49;;;;;;;64.47;60.17;;;10.10;93.60;;;;;;5053086;28;20652;-89
2023/10/24 04:06:14;;;;;;;67.73;62.93;;;10.10;93.60;;;;;;5053065;28;20234;-90
2023/10/24 04:08:40;;;;;;;49.17;45.33;;;10.10;93.60;;;;;;5054175;28;20168;-90
2023/10/24 04:11:16;;;;;;;47.33;43.83;;;10.10;93.70;;;;;;5052844;28;20172;-90
2023/10/24 04:13:42;;;;;;;53.90;50.07;;;10.10;93.70;;;;;;5052860;28;20549;-90
2023/10/24 04:16:08;;;;;;;64.63;60.10;;;10.10;93.70;;;;;;5052652;28;20250;-90
2023/10/24 04:18:33;;;;;;;66.03;61.20;;;10.10;93.80;;;;;;5052768;28;20211;-90
2023/10/24 04:20:59;;;;;;;46.00;42.50;;;10.20;93.80;;;;;;5052680;28;20222;-90
2023/10/24 04:23:24;;;;;;;44.50;41.20;;;10.20;93.80;;;;;;5053075;28;20179;-88
2023/10/24 04:25:50;;;;;;;47.00;43.60;;;10.20;93.80;;;;;;5052626;28;20242;-90
2023/10/24 04:28:15;;;;;;;43.50;40.17;;;10.20;93.80;;;;;;5053736;28;20644;-88
2023/10/24 04:30:41;;;;;;;44.87;41.57;;;10.20;93.80;;;;;;5052698;28;20302;-88
2023/10/24 04:33:08;;;;;;;43.87;40.70;;;10.30;93.90;;;;;;5053720;28;20254;-92
2023/10/24 04:35:40;;;;;;;45.80;42.30;;;10.30;93.80;;;;;;5052692;28;20718;-90
2023/10/24 04:38:21;;;;;;;46.77;43.20;;;10.30;93.80;;;;;;5020615;28;20203;-90
2023/10/24 04:40:49;;;;;;;47.40;43.70;;;10.30;93.80;;;;;;5052360;28;20282;-90
2023/10/24 04:43:15;;;;;;;46.10;42.47;;;10.40;93.80;;;;;;5052340;28;20666;-90
2023/10/24 04:45:40;;;;;;;47.30;43.03;;;10.40;93.70;;;;;;5052565;28;20211;-91
2023/10/24 04:48:06;;;;;;;46.67;43.10;;;10.40;93.70;;;;;;5052438;28;20204;-91
2023/10/24 04:50:36;;;;;;;46.70;43.07;;;10.40;93.70;;;;;;5052600;28;20164;-88
2023/10/24 04:53:02;;;;;;;48.17;43.80;;;10.50;93.60;;;;;;5053218;28;20164;-91
2023/10/24 04:55:28;;;;;;;45.07;41.60;;;10.40;93.50;;;;;;5052339;28;20733;-90
2023/10/24 04:57:54;;;;;;;44.97;41.53;;;10.40;93.50;;;;;;5052258;28;20586;-90
2023/10/24 05:00:19;;;;;;;48.63;45.07;;;10.40;93.50;;;;;;5053299;28;20259;-89
2023/10/24 05:02:45;;;;;;;47.37;43.70;;;10.40;93.50;;;;;;5053458;28;20176;-89
2023/10/24 05:05:11;;;;;;;50.10;46.40;;;10.40;93.50;;;;;;5052090;28;20206;-89
2023/10/24 05:07:37;;;;;;;50.87;47.07;;;10.40;93.60;;;;;;5053853;28;20175;-90
2023/10/24 05:10:03;;;;;;;49.37;45.30;;;10.40;93.70;;;;;;5051468;28;20236;-89
2023/10/24 05:12:29;;;;;;;53.07;48.90;;;10.40;93.70;;;;;;5052112;28;20184;-89
2023/10/24 05:14:54;;;;;;;54.63;50.57;;;10.40;93.70;;;;;;5051865;28;20230;-90
2023/10/24 05:17:20;;;;;;;74.63;69.17;;;10.40;93.80;;;;;;5052041;28;20330;-90
2023/10/24 05:19:45;;;;;;;73.63;68.33;;;10.40;93.90;;;;;;5052124;28;20643;-89
2023/10/24 05:22:11;;;;;;;71.43;66.37;;;10.40;93.90;;;;;;5052327;28;20180;-89
2023/10/24 05:24:38;;;;;;;74.63;69.13;;;10.40;94.00;;;;;;5051747;28;20258;-90
2023/10/24 05:27:04;;;;;;;75.67;70.43;;;10.40;94.00;;;;;;5052286;28;20184;-90
2023/10/24 05:29:35;;;;;;;73.90;68.70;;;10.30;94.00;;;;;;5052134;28;20543;-89
2023/10/24 05:32:00;;;;;;;75.23;69.63;;;10.30;94.10;;;;;;5052106;28;20643;-90
2023/10/24 05:34:29;;;;;;;76.20;70.87;;;10.40;94.10;;;;;;5052315;28;20234;-90
2023/10/24 05:36:55;;;;;;;77.43;71.63;;;10.40;94.10;;;;;;5053102;28;20652;-90
2023/10/24 05:39:22;;;;;;;75.43;69.97;;;10.30;94.20;;;;;;5051939;28;20188;-90
2023/10/24 05:41:48;;;;;;;75.47;70.00;;;10.30;94.20;;;;;;5051819;28;20184;-89
2023/10/24 05:44:14;;;;;;;76.40;70.70;;;10.30;94.20;;;;;;5051765;28;20187;-90
2023/10/24 05:46:40;;;;;;;77.70;71.47;;;10.30;94.20;;;;;;5053017;28;20199;-90
2023/10/24 05:49:06;;;;;;;79.87;73.73;;;10.40;94.30;;;;;;5051858;28;20326;-91
2023/10/24 05:51:32;;;;;;;57.47;53.07;;;10.30;94.30;;;;;;5051908;28;20298;-91
2023/10/24 05:53:58;;;;;;;57.17;52.87;;;10.40;94.30;;;;;;5051737;28;20184;-88
2023/10/24 05:56:23;;;;;;;78.80;72.83;;;10.30;94.40;;;;;;5051702;28;20206;-88
2023/10/24 05:58:49;;;;;;;79.37;73.87;;;10.30;94.40;;;;;;5053239;28;20200;-90
2023/10/24 06:01:15;;;;;;;86.27;80.20;;;10.30;94.40;;;;;;5051693;28;20271;-89
2023/10/24 06:03:40;;;;;;;62.93;58.03;;;10.30;94.40;;;;;;5051535;28;20183;-91
2023/10/24 06:06:07;;;;;;;62.53;57.33;;;10.40;94.50;;;;;;5052574;28;20204;-89
2023/10/24 06:08:32;;;;;;;83.90;77.97;;;10.40;94.50;;;;;;5051670;28;20187;-89
2023/10/24 06:11:00;;;;;;;81.90;76.03;;;10.40;94.50;;;;;;5051449;28;20184;-91
2023/10/24 06:13:26;;;;;;;84.90;78.60;;;10.30;94.50;;;;;;5051500;28;20176;-91
2023/10/24 06:15:51;;;;;;;61.20;56.47;;;10.40;94.60;;;;;;5051357;28;20215;-90
2023/10/24 06:18:18;;;;;;;64.07;59.23;;;10.40;94.60;;;;;;5052693;28;20188;-91
2023/10/24 06:20:44;;;;;;;64.40;59.40;;;10.40;94.60;;;;;;5052904;28;20176;-90
2023/10/24 06:23:11;;;;;;;66.57;61.27;;;10.40;94.60;;;;;;5054798;28;20229;-90
2023/10/24 06:25:40;;;;;;;65.33;60.47;;;10.40;94.60;;;;;;5054819;28;20709;-90
2023/10/24 06:28:07;;;;;;;63.67;58.07;;;10.40;94.70;;;;;;5054976;28;20180;-90
2023/10/24 06:30:33;;;;;;;98.17;90.67;;;10.40;94.60;;;;;;5054906;28;20175;-90
2023/10/24 06:32:59;;;;;;;96.40;89.00;;;10.40;94.60;;;;;;5054810;28;20271;-90
2023/10/24 06:35:25;;;;;;;95.47;88.77;;;10.40;94.60;;;;;;5056112;28;20675;-90
2023/10/24 06:37:51;;;;;;;91.80;84.97;;;10.40;94.60;;;;;;5054695;28;20184;-89
2023/10/24 06:40:17;;;;;;;93.27;86.37;;;10.50;94.70;;;;;;5055020;28;20274;-90
2023/10/24 06:42:42;;;;;;;95.23;87.83;;;10.50;94.70;;;;;;5054728;28;20176;-89
2023/10/24 06:45:08;;;;;;;90.63;84.20;;;10.50;94.70;;;;;;5054423;28;20299;-90
2023/10/24 06:47:34;;;;;;;91.10;84.47;;;10.50;94.70;;;;;;5055947;28;20168;-90
2023/10/24 06:49:59;;;;;;;93.13;86.10;;;10.40;94.70;;;;;;5055857;28;20255;-91
2023/10/24 06:52:25;;;;;;;89.60;82.83;;;10.50;94.70;;;;;;5054310;28;20172;-90
2023/10/24 06:54:50;;;;;;;91.80;85.00;;;10.50;94.70;;;;;;5054352;28;20286;-89
2023/10/24 06:57:17;;;;;;;87.47;81.20;;;10.50;94.70;;;;;;5054614;28;20350;-90
2023/10/24 06:59:43;;;;;;;67.53;62.37;;;10.50;94.70;;;;;;5054269;28;20207;-90
2023/10/24 07:02:09;;;;;;;71.40;65.57;;;10.50;94.70;;;;;;5055492;28;20208;-90
2023/10/24 07:04:34;;;;;;;72.47;66.70;;;10.50;94.70;;;;;;5054350;28;20192;-89
2023/10/24 07:07:00;;;;;;;75.53;69.10;;;10.50;94.70;;;;;;5054167;28;20211;-89
2023/10/24 07:09:25;;;;;;;70.40;64.30;;;10.50;94.70;;;;;;5054409;28;20172;-90
2023/10/24 07:11:51;;;;;;;73.70;67.37;;;10.50;94.70;;;;;;5054360;28;20172;-89
2023/10/24 07:14:16;;;;;;;90.37;83.57;;;10.60;94.80;;;;;;5056858;28;20176;-89
2023/10/24 07:16:42;;;;;;;90.03;83.13;;;10.60;94.70;;;;;;5053979;28;20226;-90
2023/10/24 07:19:07;;;;;;;90.53;83.50;;;10.60;94.70;;;;;;5054716;28;20200;-92
2023/10/24 07:21:33;;;;;;;91.60;84.57;;;10.60;94.70;;;;;;5055692;28;20176;-89
2023/10/24 07:23:59;;;;;;;89.07;82.03;;;10.60;94.60;;;;;;5055208;28;20528;-89
2023/10/24 07:26:24;;;;;;;88.70;81.50;;;10.60;94.60;;;;;;5053735;28;20240;-88
2023/10/24 07:28:50;;;;;;;89.90;83.50;;;10.60;94.60;;;;;;5055107;28;20172;-88
2023/10/24 07:31:15;;;;;;;84.10;78.00;;;10.60;94.60;;;;;;5054983;28;20180;-91
2023/10/24 07:33:41;;;;;;;88.53;81.73;;;10.70;94.60;;;;;;5053073;28;20233;-90
2023/10/24 07:36:08;;;;;;;90.40;83.70;;;10.60;94.60;;;;;;5053643;28;20257;-89
2023/10/24 07:38:34;;;;;;;89.77;83.10;;;10.70;94.60;;;;;;5053822;28;20717;-91
2023/10/24 07:41:00;;;;;;;93.27;86.33;;;10.70;94.60;;;;;;5055726;28;20172;-90
2023/10/24 07:43:26;;;;;;;88.60;82.23;;;10.70;94.50;;;;;;5053826;28;20529;-91
2023/10/24 07:45:53;;;;;;;91.27;84.47;;;10.70;94.50;;;;;;5053504;28;20199;-91
2023/10/24 07:48:20;;;;;;;72.17;66.67;;;10.70;94.50;;;;;;5053694;28;20175;-91
2023/10/24 07:50:53;;;;;;;74.87;68.63;;;10.70;94.50;;;;;;5053366;28;20179;-91
2023/10/24 07:53:23;;;;;;;100.87;93.77;;;10.70;94.50;;;;;;5053349;28;20263;-91
2023/10/24 07:55:50;;;;;;;104.57;97.37;;;10.80;94.50;;;;;;5054775;28;20279;-91
2023/10/24 07:58:16;;;;;;;106.10;98.37;;;10.80;94.50;;;;;;5053264;28;20191;-91
2023/10/24 08:00:43;;;;;;;80.83;74.60;;;10.80;94.50;;;;;;5054373;28;20205;-91
2023/10/24 08:03:09;;;;;;;78.67;72.37;;;10.70;94.50;;;;;;5053236;28;20647;-91
2023/10/24 08:05:35;;;;;;;108.77;100.87;;;10.70;94.60;;;;;;5053179;28;20678;-91
2023/10/24 08:08:01;;;;;;;111.67;103.67;;;10.70;94.60;;;;;;5053108;28;20176;-90
2023/10/24 08:10:26;;;;;;;108.47;100.77;;;10.70;94.60;;;;;;5053114;28;20223;-90
2023/10/24 08:12:51;;;;;;;80.03;74.33;;;10.70;94.60;;;;;;5053559;28;20608;-91
2023/10/24 08:15:17;;;;;;;81.37;75.17;;;10.70;94.70;;;;;;5052868;28;20219;-90
2023/10/24 08:17:43;;;;;;;80.10;73.57;;;10.80;94.70;;;;;;5054506;28;20164;-90
2023/10/24 08:20:09;;;;;;;78.53;72.63;;;10.80;94.70;;;;;;5065250;28;20168;-92
2023/10/24 08:22:34;;;;;;;80.43;74.20;;;10.70;94.80;;;;;;5055473;28;20202;-90
2023/10/24 08:25:00;;;;;;;76.63;70.43;;;10.80;94.80;;;;;;5052994;28;20195;-90
2023/10/24 08:27:25;;;;;;;76.00;69.87;;;10.80;94.80;;;;;;5052936;28;20179;-90
2023/10/24 08:29:51;;;;;;;78.10;71.90;;;10.80;94.90;;;;;;5052695;28;20640;-90
2023/10/24 08:32:16;;;;;;;79.30;73.13;;;10.80;94.90;;;;;;5052744;28;20183;-91
2023/10/24 08:34:42;;;;;;;79.57;73.63;;;10.80;94.90;;;;;;5052747;28;20184;-90
2023/10/24 08:37:08;;;;;;;78.07;71.70;;;10.80;94.90;;;;;;5053153;28;20199;-91
2023/10/24 08:39:34;;;;;;;77.13;71.10;;;10.80;95.00;;;;;;5054227;28;20192;-91
2023/10/24 08:42:00;;;;;;;79.13;72.70;;;10.80;95.00;;;;;;5052990;28;20655;-91
2023/10/24 08:44:26;;;;;;;78.37;72.10;;;10.80;95.00;;;;;;5052745;28;20172;-91
2023/10/24 08:46:52;;;;;;;81.30;74.80;;;10.80;95.00;;;;;;5052329;28;20585;-91
2023/10/24 08:49:19;;;;;;;79.07;73.30;;;10.90;95.10;;;;;;5052315;28;20241;-90
2023/10/24 08:51:45;;;;;;;81.47;75.27;;;10.90;95.10;;;;;;5053476;28;20214;-90
2023/10/24 08:54:11;;;;;;;83.07;76.83;;;10.90;95.10;;;;;;5053321;28;20221;-90
2023/10/24 08:56:38;;;;;;;80.83;74.87;;;10.90;95.10;;;;;;5052080;28;20199;-90
2023/10/24 08:59:07;;;;;;;82.50;76.43;;;10.90;95.10;;;;;;5052138;28;20179;-90
2023/10/24 09:01:35;;;;;;;82.93;76.83;;;10.90;95.10;;;;;;5052090;28;20597;-90
2023/10/24 09:04:01;;;;;;;87.87;81.37;;;10.90;95.10;;;;;;5053598;28;20182;-89
2023/10/24 09:06:26;;;;;;;86.67;80.17;;;10.90;95.10;;;;;;5052630;28;20204;-90
2023/10/24 09:08:52;;;;;;;81.47;75.50;;;11.00;95.10;;;;;;5052527;28;20175;-90
2023/10/24 09:11:17;;;;;;;101.63;94.37;;;11.00;95.20;;;;;;5054658;28;20199;-91
2023/10/24 09:13:44;;;;;;;104.27;96.47;;;11.00;95.10;;;;;;5053379;28;20176;-90
2023/10/24 09:16:11;;;;;;;101.07;93.67;;;11.00;95.20;;;;;;5051921;28;20263;-91
2023/10/24 09:18:40;;;;;;;100.53;93.43;;;11.00;95.20;;;;;;5053683;28;20168;-91
2023/10/24 09:21:07;;;;;;;104.73;97.43;;;11.00;95.20;;;;;;5052245;28;20602;-90
2023/10/24 09:23:35;;;;;;;102.70;95.43;;;11.10;95.20;;;;;;5052107;28;20560;-91
2023/10/24 09:26:05;;;;;;;102.50;95.43;;;11.10;95.20;;;;;;5052845;28;20204;-90
2023/10/24 09:28:31;;;;;;;105.57;98.50;;;11.10;95.20;;;;;;5052398;28;20180;-90
2023/10/24 09:30:59;;;;;;;105.83;98.73;;;11.10;95.20;;;;;;5052213;28;20552;-91
2023/10/24 09:33:28;;;;;;;104.97;97.47;;;11.20;95.20;;;;;;5053493;28;20230;-91
2023/10/24 09:35:54;;;;;;;108.07;100.67;;;11.20;95.20;;;;;;5053228;28;20206;-91
2023/10/24 09:38:21;;;;;;;105.40;98.00;;;11.20;95.20;;;;;;5052312;28;20215;-91
2023/10/24 09:40:47;;;;;;;108.53;101.00;;;11.30;95.20;;;;;;5052077;28;20790;-91
2023/10/24 09:43:23;;;;;;;108.37;100.83;;;11.30;95.20;;;;;;5051913;28;20262;-90
2023/10/24 09:45:52;;;;;;;84.10;78.07;;;11.30;95.20;;;;;;5051900;28;20710;-91
2023/10/24 09:48:19;;;;;;;85.77;79.43;;;11.30;95.20;;;;;;5052037;28;20172;-91
2023/10/24 09:50:46;;;;;;;109.17;101.80;;;11.30;95.20;;;;;;5052380;28;20183;-91
2023/10/24 09:53:13;;;;;;;107.83;100.37;;;11.30;95.20;;;;;;5053179;28;20656;-91
2023/10/24 09:55:41;;;;;;;100.53;93.60;;;11.40;95.30;;;;;;5051962;28;20266;-91
2023/10/24 09:58:08;;;;;;;82.60;76.47;;;11.40;95.20;;;;;;5055812;28;20175;-91
2023/10/24 10:00:34;;;;;;;83.70;77.83;;;11.50;95.30;;;;;;5073548;28;20165;-92
2023/10/24 10:03:00;;;;;;;105.07;97.93;;;11.50;95.30;;;;;;5081309;28;20191;-93
2023/10/24 10:05:30;;;;;;;102.57;95.27;;;11.50;95.30;;;;;;5081591;28;20211;-93
2023/10/24 10:07:58;;;;;;;86.73;80.43;;;11.60;95.30;;;;;;5078401;28;20161;-93
2023/10/24 10:10:24;;;;;;;85.57;78.90;;;11.50;95.20;;;;;;5079881;28;20184;-91
2023/10/24 10:12:59;;;;;;;83.50;76.53;;;11.60;95.20;;;;;;5080563;28;20195;-92
2023/10/24 10:15:56;;;;;;;80.93;75.40;;;11.50;95.10;;;;;;5078922;28;20230;-92
2023/10/24 10:18:42;;;;;;;82.93;77.00;;;11.60;95.20;;;;;;5073722;28;20546;-94
2023/10/24 10:21:25;;;;;;;83.80;77.47;;;11.70;95.20;;;;;;5066295;28;20179;-91
2023/10/24 10:24:21;;;;;;;82.87;77.13;;;11.70;95.20;;;;;;5055711;28;20164;-91
2023/10/24 10:27:06;;;;;;;82.53;76.40;;;11.70;95.10;;;;;;5058751;28;20200;-92
2023/10/24 10:29:37;;;;;;;81.87;76.07;;;11.80;95.10;;;;;;5061120;28;20174;-91
2023/10/24 10:32:41;;;;;;;86.93;80.33;;;11.80;95.10;;;;;;5057672;28;20172;-90
2023/10/24 10:35:07;;;;;;;82.10;76.20;;;11.80;95.10;;;;;;5025014;28;20211;-91
2023/10/24 10:37:35;;;;;;;83.13;77.13;;;11.80;95.10;;;;;;5056533;28;20203;-91
2023/10/24 10:40:24;;;;;;;83.83;77.83;;;11.90;95.10;;;;;;5055275;28;20269;-91
2023/10/24 10:42:51;;;;;;;82.10;76.50;;;11.90;95.00;;;;;;5055733;28;20168;-91
2023/10/24 10:45:32;;;;;;;85.60;79.40;;;11.90;95.00;;;;;;5055802;28;20207;-92
2023/10/24 10:47:58;;;;;;;85.27;79.50;;;12.00;95.00;;;;;;5056844;28;20176;-90
2023/10/24 10:50:33;;;;;;;85.40;79.27;;;12.00;94.90;;;;;;5056557;28;20180;-91
2023/10/24 10:53:21;;;;;;;86.00;80.10;;;12.00;94.90;;;;;;5056188;28;20214;-91
2023/10/24 10:56:07;;;;;;;86.77;80.67;;;11.90;94.80;;;;;;5055697;28;20223;-91
2023/10/24 10:58:53;;;;;;;87.43;81.13;;;12.00;94.90;;;;;;5054947;28;20177;-91
2023/10/24 11:01:27;;;;;;;84.20;78.40;;;12.00;94.80;;;;;;5056416;28;20207;-91
2023/10/24 11:03:56;;;;;;;87.80;81.10;;;12.10;94.90;;;;;;5056100;28;20636;-91
2023/10/24 11:06:26;;;;;;;86.83;80.63;;;12.10;94.80;;;;;;5054646;28;20278;-91
2023/10/24 11:09:13;;;;;;;86.07;79.83;;;12.10;94.70;;;;;;5055161;28;20176;-91
2023/10/24 11:11:39;;;;;;;86.50;80.07;;;12.10;94.80;;;;;;5054645;28;20163;-91
2023/10/24 11:14:19;;;;;;;113.33;105.83;;;12.20;94.70;;;;;;5054715;28;20169;-91
2023/10/24 11:16:48;;;;;;;115.37;107.80;;;12.20;94.70;;;;;;5054841;28;20690;-91
2023/10/24 11:19:22;;;;;;;109.73;102.30;;;12.20;94.60;;;;;;5064806;28;20190;-92
2023/10/24 11:21:52;;;;;;;114.30;106.13;;;12.20;94.60;;;;;;5054666;28;20190;-91
2023/10/24 11:24:21;;;;;;;109.33;102.10;;;12.20;94.50;;;;;;5056722;28;20172;-93
2023/10/24 11:26:58;;;;;;;111.00;103.43;;;12.30;94.50;;;;;;5072794;28;20204;-92
2023/10/24 11:29:24;;;;;;;112.60;105.03;;;12.30;94.40;;;;;;5073936;28;20198;-93
2023/10/24 11:31:50;;;;;;;111.27;103.77;;;12.30;94.40;;;;;;5071453;28;20176;-92
2023/10/24 11:34:15;;;;;;;109.93;102.20;;;12.30;94.40;;;;;;5073370;28;20187;-92
2023/10/24 11:36:43;;;;;;;109.60;102.43;;;12.30;94.30;;;;;;5072805;28;20252;-92
2023/10/24 11:39:13;;;;;;;107.37;100.17;;;12.30;94.30;;;;;;5074384;28;20186;-92
2023/10/24 11:41:40;;;;;;;110.63;102.70;;;12.30;94.20;;;;;;5073767;28;20266;-93
2023/10/24 11:44:06;;;;;;;108.93;101.83;;;12.30;94.20;;;;;;5070592;28;20203;-92
2023/10/24 11:46:32;;;;;;;83.23;77.33;;;12.30;94.20;;;;;;5068225;28;20294;-93
2023/10/24 11:48:58;;;;;;;83.87;77.47;;;12.30;94.20;;;;;;5069202;28;20245;-92
2023/10/24 11:51:25;;;;;;;107.77;100.67;;;12.40;94.20;;;;;;5069087;28;20184;-92
2023/10/24 11:54:00;;;;;;;113.83;106.33;;;12.50;94.20;;;;;;5066724;28;20248;-92
2023/10/24 11:56:26;;;;;;;86.57;80.03;;;12.50;94.20;;;;;;5069729;28;20278;-93
2023/10/24 11:58:52;;;;;;;87.73;81.43;;;12.50;94.20;;;;;;5068977;28;20219;-92
2023/10/24 12:01:18;;;;;;;86.27;79.87;;;12.60;94.20;;;;;;5068881;28;20196;-92
2023/10/24 12:03:47;;;;;;;107.77;100.07;;;12.50;94.10;;;;;;5067383;28;20195;-92
2023/10/24 12:06:17;;;;;;;109.23;102.10;;;12.60;94.10;;;;;;5070700;28;20200;-91
2023/10/24 12:08:43;;;;;;;82.17;76.37;;;12.50;94.00;;;;;;5074935;28;20256;-93
2023/10/24 12:11:09;;;;;;;81.83;76.13;;;12.50;94.00;;;;;;5075717;28;20160;-92
2023/10/24 12:13:35;;;;;;;80.43;74.93;;;12.50;94.00;;;;;;5074116;28;20206;-93
2023/10/24 12:16:02;;;;;;;83.40;77.37;;;12.50;94.00;;;;;;5070927;28;20216;-93
2023/10/24 12:18:29;;;;;;;86.63;80.47;;;12.50;94.00;;;;;;5073564;28;20183;-93
2023/10/24 12:23:28;;;;;;;86.50;80.10;;;12.50;94.00;;;;;;5037149;28;20224;-92
2023/10/24 12:25:53;;;;;;;83.47;77.87;;;12.50;94.00;;;;;;5021531;28;20207;-93
2023/10/24 12:28:19;;;;;;;81.63;76.13;;;12.50;94.00;;;;;;5033056;28;20189;-92
2023/10/24 12:30:46;;;;;;;79.27;73.57;;;12.50;94.00;;;;;;5030362;28;20664;-93